sensor_id;sensor_type;location;lat;lon;timestamp;pressure;altitude;pressure_sealevel;temperature;humidity
49393;BME280;35268;42.642;23.308;2023-07-20T00:00:51;93660.41;;;23.01;55.66
49393;BME280;35268;42.642;23.308;2023-07-20T00:03:19;93668.94;;;23.07;55.11
49393;BME280;35268;42.642;23.308;2023-07-20T00:05:50;93668.19;;;23.06;55.26
49393;BME280;35268;42.642;23.308;2023-07-20T00:08:17;93664.28;;;23.03;55.34
49393;BME280;35268;42.642;23.308;2023-07-20T00:10:43;93654.97;;;23.05;55.49
49393;BME280;35268;42.642;23.308;2023-07-20T00:13:10;93658.06;;;23.07;54.59
49393;BME280;35268;42.642;23.308;2023-07-20T00:15:36;93647.19;;;23.10;53.46
49393;BME280;35268;42.642;23.308;2023-07-20T00:18:03;93656.09;;;23.11;54.05
49393;BME280;35268;42.642;23.308;2023-07-20T00:20:29;93658.06;;;23.10;53.63
49393;BME280;35268;42.642;23.308;2023-07-20T00:22:54;93656.09;;;23.11;53.92
49393;BME280;35268;42.642;23.308;2023-07-20T00:25:20;93661.91;;;23.16;54.42
49393;BME280;35268;42.642;23.308;2023-07-20T00:27:46;93657.66;;;23.12;54.67
49393;BME280;35268;42.642;23.308;2023-07-20T00:30:12;93664.63;;;23.16;54.51
49393;BME280;35268;42.642;23.308;2023-07-20T00:32:37;93663.47;;;23.14;52.85
49393;BME280;35268;42.642;23.308;2023-07-20T00:35:03;93678.25;;;23.09;53.19
49393;BME280;35268;42.642;23.308;2023-07-20T00:37:28;93674.00;;;23.05;53.04
49393;BME280;35268;42.642;23.308;2023-07-20T00:39:54;93672.44;;;23.07;53.23
49393;BME280;35268;42.642;23.308;2023-07-20T00:42:20;93659.59;;;23.08;53.46
49393;BME280;35268;42.642;23.308;2023-07-20T00:44:45;93656.50;;;23.06;51.72
49393;BME280;35268;42.642;23.308;2023-07-20T00:47:10;93657.69;;;23.01;51.58
49393;BME280;35268;42.642;23.308;2023-07-20T00:49:37;93656.53;;;22.98;52.48
49393;BME280;35268;42.642;23.308;2023-07-20T00:52:04;93651.47;;;23.00;52.77
49393;BME280;35268;42.642;23.308;2023-07-20T00:54:31;93649.16;;;23.02;53.96
49393;BME280;35268;42.642;23.308;2023-07-20T00:56:58;93644.91;;;22.98;54.16
49393;BME280;35268;42.642;23.308;2023-07-20T00:59:25;93638.28;;;22.95;54.82
49393;BME280;35268;42.642;23.308;2023-07-20T01:01:51;93650.38;;;22.91;55.77
49393;BME280;35268;42.642;23.308;2023-07-20T01:04:17;93651.16;;;22.88;54.90
49393;BME280;35268;42.642;23.308;2023-07-20T01:06:50;93639.59;;;22.69;54.16
49393;BME280;35268;42.642;23.308;2023-07-20T01:12:27;93645.13;;;22.44;57.10
49393;BME280;35268;42.642;23.308;2023-07-20T01:14:55;93651.38;;;22.41;55.85
49393;BME280;35268;42.642;23.308;2023-07-20T01:17:21;93649.03;;;22.43;55.74
49393;BME280;35268;42.642;23.308;2023-07-20T01:19:47;93642.81;;;22.46;54.89
49393;BME280;35268;42.642;23.308;2023-07-20T01:30:46;93647.53;;;22.24;57.38
49393;BME280;35268;42.642;23.308;2023-07-20T01:33:16;93645.56;;;22.21;57.69
49393;BME280;35268;42.642;23.308;2023-07-20T01:35:43;93651.78;;;22.18;58.23
49393;BME280;35268;42.642;23.308;2023-07-20T01:38:11;93642.50;;;22.12;58.14
49393;BME280;35268;42.642;23.308;2023-07-20T01:40:38;93649.47;;;22.09;58.10
49393;BME280;35268;42.642;23.308;2023-07-20T01:43:04;93652.59;;;21.93;58.76
49393;BME280;35268;42.642;23.308;2023-07-20T01:45:29;93651.47;;;21.76;59.14
49393;BME280;35268;42.642;23.308;2023-07-20T01:47:55;93649.94;;;21.72;59.45
49393;BME280;35268;42.642;23.308;2023-07-20T01:50:20;93642.94;;;21.71;60.99
49393;BME280;35268;42.642;23.308;2023-07-20T01:52:46;93641.78;;;21.61;60.72
49393;BME280;35268;42.642;23.308;2023-07-20T01:55:11;93641.41;;;21.52;61.14
49393;BME280;35268;42.642;23.308;2023-07-20T01:57:37;93649.53;;;21.44;61.75
49393;BME280;35268;42.642;23.308;2023-07-20T02:00:03;93642.59;;;21.43;62.50
49393;BME280;35268;42.642;23.308;2023-07-20T02:02:28;93641.78;;;21.39;62.73
49393;BME280;35268;42.642;23.308;2023-07-20T02:04:54;93639.03;;;21.32;63.47
49393;BME280;35268;42.642;23.308;2023-07-20T02:07:19;93629.75;;;21.22;63.69
49393;BME280;35268;42.642;23.308;2023-07-20T02:09:45;93631.31;;;21.13;63.71
49393;BME280;35268;42.642;23.308;2023-07-20T02:12:10;93639.03;;;21.11;63.85
49393;BME280;35268;42.642;23.308;2023-07-20T02:14:36;93630.88;;;21.03;63.56
49393;BME280;35268;42.642;23.308;2023-07-20T02:17:01;93642.50;;;20.97;63.57
49393;BME280;35268;42.642;23.308;2023-07-20T02:19:27;93635.50;;;20.92;64.38
49393;BME280;35268;42.642;23.308;2023-07-20T02:21:52;93642.47;;;20.90;64.54
49393;BME280;35268;42.642;23.308;2023-07-20T02:24:18;93638.59;;;20.87;64.86
49393;BME280;35268;42.642;23.308;2023-07-20T02:26:44;93640.53;;;20.83;65.25
49393;BME280;35268;42.642;23.308;2023-07-20T02:29:09;93632.00;;;20.81;65.45
49393;BME280;35268;42.642;23.308;2023-07-20T02:31:37;93634.31;;;20.79;65.75
49393;BME280;35268;42.642;23.308;2023-07-20T02:34:07;93637.00;;;20.72;65.53
49393;BME280;35268;42.642;23.308;2023-07-20T02:36:34;93635.84;;;20.73;65.50
49393;BME280;35268;42.642;23.308;2023-07-20T02:39:00;93639.34;;;20.77;65.87
49393;BME280;35268;42.642;23.308;2023-07-20T02:41:27;93630.81;;;20.71;65.92
49393;BME280;35268;42.642;23.308;2023-07-20T02:43:52;93624.25;;;20.69;66.11
49393;BME280;35268;42.642;23.308;2023-07-20T02:46:18;93620.69;;;20.57;66.04
49393;BME280;35268;42.642;23.308;2023-07-20T02:48:43;93613.72;;;20.53;66.89
49393;BME280;35268;42.642;23.308;2023-07-20T02:51:09;93611.78;;;20.50;67.06
49393;BME280;35268;42.642;23.308;2023-07-20T02:53:34;93601.69;;;20.43;67.44
49393;BME280;35268;42.642;23.308;2023-07-20T02:56:00;93603.28;;;20.48;67.24
49393;BME280;35268;42.642;23.308;2023-07-20T02:58:25;93605.56;;;20.49;67.23
49393;BME280;35268;42.642;23.308;2023-07-20T03:00:51;93628.41;;;20.48;67.37
49393;BME280;35268;42.642;23.308;2023-07-20T03:03:16;93607.50;;;20.41;67.71
49393;BME280;35268;42.642;23.308;2023-07-20T03:05:42;93611.72;;;20.39;67.94
49393;BME280;35268;42.642;23.308;2023-07-20T03:08:07;93618.66;;;20.33;66.99
49393;BME280;35268;42.642;23.308;2023-07-20T03:10:38;93612.84;;;20.31;66.62
49393;BME280;35268;42.642;23.308;2023-07-20T03:13:04;93612.47;;;20.29;66.18
49393;BME280;35268;42.642;23.308;2023-07-20T03:15:29;93623.66;;;20.27;66.52
49393;BME280;35268;42.642;23.308;2023-07-20T03:17:56;93616.28;;;20.17;66.82
49393;BME280;35268;42.642;23.308;2023-07-20T03:20:23;93622.88;;;20.19;67.29
49393;BME280;35268;42.642;23.308;2023-07-20T03:22:48;93629.81;;;20.20;67.28
49393;BME280;35268;42.642;23.308;2023-07-20T03:25:14;93636.38;;;20.16;67.65
49393;BME280;35268;42.642;23.308;2023-07-20T03:27:39;93628.69;;;20.21;67.52
49393;BME280;35268;42.642;23.308;2023-07-20T03:30:05;93633.69;;;20.23;68.14
49393;BME280;35268;42.642;23.308;2023-07-20T03:32:32;93634.00;;;20.11;67.94
49393;BME280;35268;42.642;23.308;2023-07-20T03:34:57;93637.13;;;20.09;68.41
49393;BME280;35268;42.642;23.308;2023-07-20T03:37:23;93639.06;;;20.12;68.19
49393;BME280;35268;42.642;23.308;2023-07-20T03:39:48;93634.81;;;20.11;68.15
49393;BME280;35268;42.642;23.308;2023-07-20T03:42:14;93628.59;;;20.07;68.82
49393;BME280;35268;42.642;23.308;2023-07-20T03:44:40;93635.84;;;19.89;70.24
49393;BME280;35268;42.642;23.308;2023-07-20T03:47:05;93628.44;;;19.82;70.52
49393;BME280;35268;42.642;23.308;2023-07-20T03:49:31;93632.81;;;19.97;70.34
49393;BME280;35268;42.642;23.308;2023-07-20T03:51:57;93636.66;;;20.00;70.39
49393;BME280;35268;42.642;23.308;2023-07-20T03:54:23;93646.38;;;20.08;70.64
49393;BME280;35268;42.642;23.308;2023-07-20T03:56:48;93637.50;;;20.15;70.49
49393;BME280;35268;42.642;23.308;2023-07-20T03:59:14;93641.03;;;20.22;70.62
49393;BME280;35268;42.642;23.308;2023-07-20T04:01:39;93648.03;;;20.31;70.94
49393;BME280;35268;42.642;23.308;2023-07-20T04:04:06;93654.63;;;20.37;70.32
49393;BME280;35268;42.642;23.308;2023-07-20T04:06:32;93638.78;;;20.32;70.58
49393;BME280;35268;42.642;23.308;2023-07-20T04:08:58;93642.28;;;20.43;69.85
49393;BME280;35268;42.642;23.308;2023-07-20T04:11:23;93628.78;;;20.50;70.06
49393;BME280;35268;42.642;23.308;2023-07-20T04:13:49;93616.47;;;20.63;68.52
49393;BME280;35268;42.642;23.308;2023-07-20T04:16:14;93621.94;;;20.74;67.53
49393;BME280;35268;42.642;23.308;2023-07-20T04:18:40;93615.75;;;20.81;67.80
49393;BME280;35268;42.642;23.308;2023-07-20T04:21:08;93617.72;;;20.95;67.48
49393;BME280;35268;42.642;23.308;2023-07-20T04:23:34;93616.19;;;21.04;67.33
49393;BME280;35268;42.642;23.308;2023-07-20T04:26:01;93622.00;;;21.14;67.26
49393;BME280;35268;42.642;23.308;2023-07-20T04:28:27;93622.00;;;21.17;66.00
49393;BME280;35268;42.642;23.308;2023-07-20T04:30:52;93618.50;;;21.35;64.74
49393;BME280;35268;42.642;23.308;2023-07-20T04:33:19;93619.72;;;21.44;64.32
49393;BME280;35268;42.642;23.308;2023-07-20T04:38:10;93615.06;;;21.63;63.96
49393;BME280;35268;42.642;23.308;2023-07-20T04:40:35;93616.22;;;21.73;63.72
49393;BME280;35268;42.642;23.308;2023-07-20T04:43:00;93608.47;;;21.78;63.12
49393;BME280;35268;42.642;23.308;2023-07-20T04:45:26;93603.00;;;21.86;63.31
49393;BME280;35268;42.642;23.308;2023-07-20T04:47:51;93610.38;;;21.92;63.09
49393;BME280;35268;42.642;23.308;2023-07-20T04:50:17;93611.09;;;22.00;63.34
49393;BME280;35268;42.642;23.308;2023-07-20T04:52:43;93619.22;;;22.14;63.10
49393;BME280;35268;42.642;23.308;2023-07-20T04:55:11;93610.28;;;22.17;62.95
49393;BME280;35268;42.642;23.308;2023-07-20T04:57:37;93615.31;;;22.30;62.60
49393;BME280;35268;42.642;23.308;2023-07-20T05:00:04;93614.13;;;22.38;62.35
49393;BME280;35268;42.642;23.308;2023-07-20T05:02:30;93599.41;;;22.39;61.54
49393;BME280;35268;42.642;23.308;2023-07-20T05:04:55;93623.41;;;22.48;61.21
49393;BME280;35268;42.642;23.308;2023-07-20T05:07:21;93608.63;;;22.52;60.80
49393;BME280;35268;42.642;23.308;2023-07-20T05:09:46;93612.50;;;22.58;60.76
49393;BME280;35268;42.642;23.308;2023-07-20T05:12:12;93601.59;;;22.66;60.90
49393;BME280;35268;42.642;23.308;2023-07-20T05:14:38;93618.63;;;22.73;59.93
49393;BME280;35268;42.642;23.308;2023-07-20T05:17:03;93624.78;;;22.81;59.94
49393;BME280;35268;42.642;23.308;2023-07-20T05:19:29;93621.25;;;22.88;59.46
49393;BME280;35268;42.642;23.308;2023-07-20T05:21:54;93624.72;;;22.95;59.72
49393;BME280;35268;42.642;23.308;2023-07-20T05:24:20;93624.72;;;23.02;59.60
49393;BME280;35268;42.642;23.308;2023-07-20T05:26:45;93625.03;;;23.12;59.02
49393;BME280;35268;42.642;23.308;2023-07-20T05:29:11;93624.59;;;23.20;58.02
49393;BME280;35268;42.642;23.308;2023-07-20T05:31:36;93635.81;;;23.26;57.69
49393;BME280;35268;42.642;23.308;2023-07-20T05:34:02;93633.06;;;23.30;56.89
49393;BME280;35268;42.642;23.308;2023-07-20T05:36:27;93629.22;;;23.27;57.00
49393;BME280;35268;42.642;23.308;2023-07-20T05:38:53;93637.72;;;23.29;56.66
49393;BME280;35268;42.642;23.308;2023-07-20T05:41:18;93631.53;;;23.29;56.67
49393;BME280;35268;42.642;23.308;2023-07-20T05:43:44;93640.38;;;23.36;56.69
49393;BME280;35268;42.642;23.308;2023-07-20T05:46:10;93639.25;;;23.34;55.68
49393;BME280;35268;42.642;23.308;2023-07-20T05:48:35;93643.84;;;23.40;55.37
49393;BME280;35268;42.642;23.308;2023-07-20T05:51:01;93648.13;;;23.45;56.14
49393;BME280;35268;42.642;23.308;2023-07-20T05:53:26;93645.78;;;23.43;55.65
49393;BME280;35268;42.642;23.308;2023-07-20T05:55:55;93652.69;;;23.55;55.09
49393;BME280;35268;42.642;23.308;2023-07-20T05:58:20;93659.69;;;23.53;54.13
49393;BME280;35268;42.642;23.308;2023-07-20T06:00:50;93644.94;;;23.54;53.81
49393;BME280;35268;42.642;23.308;2023-07-20T06:03:16;93633.66;;;23.55;53.52
49393;BME280;35268;42.642;23.308;2023-07-20T06:05:46;93641.44;;;23.53;53.82
49393;BME280;35268;42.642;23.308;2023-07-20T06:08:12;93638.72;;;23.53;54.80
49393;BME280;35268;42.642;23.308;2023-07-20T06:10:37;93647.31;;;23.44;54.73
49393;BME280;35268;42.642;23.308;2023-07-20T06:13:03;93641.84;;;23.52;56.57
49393;BME280;35268;42.642;23.308;2023-07-20T06:15:31;93636.69;;;23.61;55.46
49393;BME280;35268;42.642;23.308;2023-07-20T06:17:57;93642.53;;;23.63;55.50
49393;BME280;35268;42.642;23.308;2023-07-20T06:20:23;93628.50;;;23.68;54.57
49393;BME280;35268;42.642;23.308;2023-07-20T06:22:49;93625.00;;;23.68;54.33
49393;BME280;35268;42.642;23.308;2023-07-20T06:25:14;93617.22;;;23.70;54.57
49393;BME280;35268;42.642;23.308;2023-07-20T06:27:40;93612.50;;;23.77;53.93
49393;BME280;35268;42.642;23.308;2023-07-20T06:30:06;93603.84;;;23.90;53.78
49393;BME280;35268;42.642;23.308;2023-07-20T06:32:31;93611.50;;;24.02;54.23
49393;BME280;35268;42.642;23.308;2023-07-20T06:34:57;93620.78;;;24.05;52.69
49393;BME280;35268;42.642;23.308;2023-07-20T06:37:23;93617.66;;;24.06;53.44
49393;BME280;35268;42.642;23.308;2023-07-20T06:39:49;93623.47;;;24.08;53.46
49393;BME280;35268;42.642;23.308;2023-07-20T06:42:14;93619.50;;;24.16;53.00
49393;BME280;35268;42.642;23.308;2023-07-20T06:44:40;93608.63;;;24.16;53.77
49393;BME280;35268;42.642;23.308;2023-07-20T06:47:05;93619.03;;;24.25;54.06
49393;BME280;35268;42.642;23.308;2023-07-20T06:49:31;93609.19;;;24.35;53.15
49393;BME280;35268;42.642;23.308;2023-07-20T06:51:56;93614.09;;;24.47;52.93
49393;BME280;35268;42.642;23.308;2023-07-20T06:54:22;93611.25;;;24.58;51.42
49393;BME280;35268;42.642;23.308;2023-07-20T06:56:47;93616.53;;;24.72;51.02
49393;BME280;35268;42.642;23.308;2023-07-20T06:59:13;93630.38;;;24.85;51.42
49393;BME280;35268;42.642;23.308;2023-07-20T07:01:39;93633.69;;;25.00;50.48
49393;BME280;35268;42.642;23.308;2023-07-20T07:04:04;93646.78;;;25.12;50.83
49393;BME280;35268;42.642;23.308;2023-07-20T07:06:30;93646.25;;;25.25;50.10
49393;BME280;35268;42.642;23.308;2023-07-20T07:08:56;93655.19;;;25.25;49.47
49393;BME280;35268;42.642;23.308;2023-07-20T07:11:22;93657.88;;;25.29;49.71
49393;BME280;35268;42.642;23.308;2023-07-20T07:13:48;93664.50;;;25.28;49.30
49393;BME280;35268;42.642;23.308;2023-07-20T07:16:16;93665.28;;;25.28;48.79
49393;BME280;35268;42.642;23.308;2023-07-20T07:18:46;93673.50;;;25.25;48.31
49393;BME280;35268;42.642;23.308;2023-07-20T07:21:11;93683.91;;;25.33;48.12
49393;BME280;35268;42.642;23.308;2023-07-20T07:23:40;93687.72;;;25.39;48.18
49393;BME280;35268;42.642;23.308;2023-07-20T07:26:06;93686.94;;;25.39;47.67
49393;BME280;35268;42.642;23.308;2023-07-20T07:28:31;93694.00;;;25.36;49.55
49393;BME280;35268;42.642;23.308;2023-07-20T07:31:00;93686.91;;;25.42;49.99
49393;BME280;35268;42.642;23.308;2023-07-20T07:33:25;93684.53;;;25.45;50.62
49393;BME280;35268;42.642;23.308;2023-07-20T07:35:51;93686.00;;;25.49;51.01
49393;BME280;35268;42.642;23.308;2023-07-20T07:38:20;93678.13;;;25.55;50.37
49393;BME280;35268;42.642;23.308;2023-07-20T07:40:46;93672.59;;;25.58;50.71
49393;BME280;35268;42.642;23.308;2023-07-20T07:43:11;93673.41;;;25.59;50.51
49393;BME280;35268;42.642;23.308;2023-07-20T07:45:39;93677.59;;;25.63;50.95
49393;BME280;35268;42.642;23.308;2023-07-20T07:48:05;93674.84;;;25.67;51.81
49393;BME280;35268;42.642;23.308;2023-07-20T07:50:31;93654.47;;;25.72;50.96
49393;BME280;35268;42.642;23.308;2023-07-20T07:52:57;93649.53;;;25.87;51.22
49393;BME280;35268;42.642;23.308;2023-07-20T07:55:23;93637.34;;;25.95;50.97
49393;BME280;35268;42.642;23.308;2023-07-20T07:57:49;93637.84;;;25.86;50.03
49393;BME280;35268;42.642;23.308;2023-07-20T08:00:15;93647.16;;;25.89;50.81
49393;BME280;35268;42.642;23.308;2023-07-20T08:02:46;93633.84;;;25.94;51.86
49393;BME280;35268;42.642;23.308;2023-07-20T08:05:13;93643.50;;;25.99;51.38
49393;BME280;35268;42.642;23.308;2023-07-20T08:07:39;93660.34;;;25.97;52.28
49393;BME280;35268;42.642;23.308;2023-07-20T08:10:05;93669.84;;;26.09;52.43
49393;BME280;35268;42.642;23.308;2023-07-20T08:12:31;93681.03;;;26.18;52.36
49393;BME280;35268;42.642;23.308;2023-07-20T08:14:57;93705.66;;;26.15;52.14
49393;BME280;35268;42.642;23.308;2023-07-20T08:17:22;93712.63;;;25.96;52.55
49393;BME280;35268;42.642;23.308;2023-07-20T08:19:48;93707.94;;;25.69;53.16
49393;BME280;35268;42.642;23.308;2023-07-20T08:22:13;93681.09;;;25.64;54.40
49393;BME280;35268;42.642;23.308;2023-07-20T08:24:40;93718.72;;;25.53;54.66
49393;BME280;35268;42.642;23.308;2023-07-20T08:27:05;93739.22;;;25.34;52.64
49393;BME280;35268;42.642;23.308;2023-07-20T08:29:31;93715.66;;;25.16;50.99
49393;BME280;35268;42.642;23.308;2023-07-20T08:31:56;93708.00;;;25.08;52.65
49393;BME280;35268;42.642;23.308;2023-07-20T08:34:22;93718.97;;;25.00;51.40
49393;BME280;35268;42.642;23.308;2023-07-20T08:36:47;93709.53;;;24.78;51.33
49393;BME280;35268;42.642;23.308;2023-07-20T08:39:12;93716.44;;;24.86;50.29
49393;BME280;35268;42.642;23.308;2023-07-20T08:41:38;93705.44;;;24.93;50.73
49393;BME280;35268;42.642;23.308;2023-07-20T08:44:05;93700.97;;;25.07;50.64
49393;BME280;35268;42.642;23.308;2023-07-20T08:46:31;93702.94;;;25.06;50.93
49393;BME280;35268;42.642;23.308;2023-07-20T08:48:56;93698.66;;;25.05;51.02
49393;BME280;35268;42.642;23.308;2023-07-20T08:51:23;93701.31;;;25.12;49.87
49393;BME280;35268;42.642;23.308;2023-07-20T08:53:50;93677.91;;;25.15;49.61
49393;BME280;35268;42.642;23.308;2023-07-20T08:56:17;93703.28;;;25.12;47.68
49393;BME280;35268;42.642;23.308;2023-07-20T08:58:45;93681.84;;;25.10;47.43
49393;BME280;35268;42.642;23.308;2023-07-20T09:01:11;93674.72;;;25.20;48.69
49393;BME280;35268;42.642;23.308;2023-07-20T09:03:38;93683.22;;;25.26;47.36
49393;BME280;35268;42.642;23.308;2023-07-20T09:06:05;93677.84;;;25.22;48.58
49393;BME280;35268;42.642;23.308;2023-07-20T09:08:31;93678.22;;;25.20;48.12
49393;BME280;35268;42.642;23.308;2023-07-20T09:10:56;93672.38;;;25.22;48.52
49393;BME280;35268;42.642;23.308;2023-07-20T09:13:22;93685.50;;;25.31;47.41
49393;BME280;35268;42.642;23.308;2023-07-20T09:15:52;93683.59;;;25.28;48.19
49393;BME280;35268;42.642;23.308;2023-07-20T09:18:29;93688.47;;;25.40;47.76
49393;BME280;35268;42.642;23.308;2023-07-20T09:21:05;93666.56;;;25.47;46.20
49393;BME280;35268;42.642;23.308;2023-07-20T09:23:36;93661.88;;;25.48;46.14
49393;BME280;35268;42.642;23.308;2023-07-20T09:26:12;93651.66;;;25.52;45.30
49393;BME280;35268;42.642;23.308;2023-07-20T09:28:52;93665.56;;;25.61;44.90
49393;BME280;35268;42.642;23.308;2023-07-20T09:31:19;93665.09;;;25.66;46.72
49393;BME280;35268;42.642;23.308;2023-07-20T09:33:46;93657.38;;;25.61;45.07
49393;BME280;35268;42.642;23.308;2023-07-20T09:36:12;93660.88;;;25.61;45.09
49393;BME280;35268;42.642;23.308;2023-07-20T09:38:40;93658.47;;;25.67;45.38
49393;BME280;35268;42.642;23.308;2023-07-20T09:41:06;93693.00;;;25.77;44.71
49393;BME280;35268;42.642;23.308;2023-07-20T09:43:33;93663.53;;;25.92;43.95
49393;BME280;35268;42.642;23.308;2023-07-20T09:45:59;93650.81;;;26.06;43.13
49393;BME280;35268;42.642;23.308;2023-07-20T09:48:25;93645.53;;;26.18;42.63
49393;BME280;35268;42.642;23.308;2023-07-20T09:50:55;93647.63;;;26.31;42.67
49393;BME280;35268;42.642;23.308;2023-07-20T09:53:21;93647.25;;;26.52;43.04
49393;BME280;35268;42.642;23.308;2023-07-20T09:55:47;93632.22;;;26.80;43.76
49393;BME280;35268;42.642;23.308;2023-07-20T09:58:13;93625.69;;;26.94;41.65
49393;BME280;35268;42.642;23.308;2023-07-20T10:00:41;93605.78;;;26.94;41.12
49393;BME280;35268;42.642;23.308;2023-07-20T10:03:14;93608.53;;;26.94;40.20
49393;BME280;35268;42.642;23.308;2023-07-20T10:05:45;93618.69;;;26.93;40.73
49393;BME280;35268;42.642;23.308;2023-07-20T10:08:12;93615.38;;;27.02;42.09
49393;BME280;35268;42.642;23.308;2023-07-20T10:10:40;93617.09;;;27.12;41.51
49393;BME280;35268;42.642;23.308;2023-07-20T10:13:10;93626.06;;;27.13;40.41
49393;BME280;35268;42.642;23.308;2023-07-20T10:15:43;93615.81;;;27.17;39.56
49393;BME280;35268;42.642;23.308;2023-07-20T10:18:18;93625.38;;;27.09;39.43
49393;BME280;35268;42.642;23.308;2023-07-20T10:20:50;93624.19;;;27.10;39.09
49393;BME280;35268;42.642;23.308;2023-07-20T10:23:17;93633.72;;;27.21;40.17
49393;BME280;35268;42.642;23.308;2023-07-20T10:25:42;93632.97;;;27.37;40.27
49393;BME280;35268;42.642;23.308;2023-07-20T10:28:10;93637.94;;;27.42;40.27
49393;BME280;35268;42.642;23.308;2023-07-20T10:30:36;93623.75;;;27.48;39.81
49393;BME280;35268;42.642;23.308;2023-07-20T10:33:03;93631.59;;;27.46;40.08
49393;BME280;35268;42.642;23.308;2023-07-20T10:35:29;93622.22;;;27.47;39.92
49393;BME280;35268;42.642;23.308;2023-07-20T10:38:04;93605.94;;;27.39;39.77
49393;BME280;35268;42.642;23.308;2023-07-20T10:40:36;93617.00;;;27.52;40.42
49393;BME280;35268;42.642;23.308;2023-07-20T10:43:04;93621.19;;;27.57;40.87
49393;BME280;35268;42.642;23.308;2023-07-20T10:45:34;93614.94;;;27.56;41.67
49393;BME280;35268;42.642;23.308;2023-07-20T10:48:03;93567.63;;;27.56;41.46
49393;BME280;35268;42.642;23.308;2023-07-20T10:50:30;93524.94;;;27.75;40.90
49393;BME280;35268;42.642;23.308;2023-07-20T10:53:10;93548.94;;;28.00;40.44
49393;BME280;35268;42.642;23.308;2023-07-20T10:55:36;93569.63;;;28.17;40.37
49393;BME280;35268;42.642;23.308;2023-07-20T10:58:12;93575.38;;;28.36;40.53
49393;BME280;35268;42.642;23.308;2023-07-20T11:00:57;93562.19;;;28.60;40.69
49393;BME280;35268;42.642;23.308;2023-07-20T11:03:33;93534.88;;;28.82;40.08
49393;BME280;35268;42.642;23.308;2023-07-20T11:05:59;93543.03;;;28.98;38.88
49393;BME280;35268;42.642;23.308;2023-07-20T11:08:41;93530.41;;;29.01;38.20
49393;BME280;35268;42.642;23.308;2023-07-20T11:11:28;93532.50;;;29.23;38.38
49393;BME280;35268;42.642;23.308;2023-07-20T11:14:02;93542.28;;;29.24;36.93
49393;BME280;35268;42.642;23.308;2023-07-20T11:16:38;93540.63;;;29.26;37.21
49393;BME280;35268;42.642;23.308;2023-07-20T11:19:04;93545.09;;;29.46;37.21
49393;BME280;35268;42.642;23.308;2023-07-20T11:21:38;93542.09;;;29.53;37.67
49393;BME280;35268;42.642;23.308;2023-07-20T11:24:06;93533.97;;;29.62;36.68
49393;BME280;35268;42.642;23.308;2023-07-20T11:26:52;93535.69;;;29.82;36.42
49393;BME280;35268;42.642;23.308;2023-07-20T11:29:19;93532.00;;;29.97;35.60
49393;BME280;35268;42.642;23.308;2023-07-20T11:31:45;93516.28;;;29.98;34.85
49393;BME280;35268;42.642;23.308;2023-07-20T11:36:42;93535.34;;;29.92;34.38
49393;BME280;35268;42.642;23.308;2023-07-20T11:39:12;93526.88;;;29.87;34.78
49393;BME280;35268;42.642;23.308;2023-07-20T11:41:39;93529.78;;;29.70;35.75
49393;BME280;35268;42.642;23.308;2023-07-20T11:44:09;93517.38;;;29.66;35.29
49393;BME280;35268;42.642;23.308;2023-07-20T11:46:39;93524.06;;;29.77;36.03
49393;BME280;35268;42.642;23.308;2023-07-20T11:49:05;93512.63;;;29.79;35.89
49393;BME280;35268;42.642;23.308;2023-07-20T11:51:32;93513.47;;;29.89;35.97
49393;BME280;35268;42.642;23.308;2023-07-20T11:53:58;93507.34;;;29.85;35.89
49393;BME280;35268;42.642;23.308;2023-07-20T11:56:26;93505.78;;;29.84;36.35
49393;BME280;35268;42.642;23.308;2023-07-20T11:58:55;93506.13;;;29.86;35.53
49393;BME280;35268;42.642;23.308;2023-07-20T12:01:24;93496.72;;;29.96;36.23
49393;BME280;35268;42.642;23.308;2023-07-20T12:03:51;93507.53;;;30.12;35.00
49393;BME280;35268;42.642;23.308;2023-07-20T12:06:16;93498.53;;;30.12;34.64
49393;BME280;35268;42.642;23.308;2023-07-20T12:08:43;93504.97;;;30.18;34.39
49393;BME280;35268;42.642;23.308;2023-07-20T12:11:09;93489.22;;;30.31;34.77
49393;BME280;35268;42.642;23.308;2023-07-20T12:13:36;93500.75;;;30.48;33.79
49393;BME280;35268;42.642;23.308;2023-07-20T12:16:15;93493.75;;;30.47;32.34
49393;BME280;35268;42.642;23.308;2023-07-20T12:18:42;93483.69;;;30.53;32.44
49393;BME280;35268;42.642;23.308;2023-07-20T12:21:09;93492.59;;;30.67;32.12
49393;BME280;35268;42.642;23.308;2023-07-20T12:23:41;93482.53;;;30.73;30.36
49393;BME280;35268;42.642;23.308;2023-07-20T12:26:08;93482.88;;;30.75;30.09
49393;BME280;35268;42.642;23.308;2023-07-20T12:28:43;93490.84;;;30.82;30.18
49393;BME280;35268;42.642;23.308;2023-07-20T12:31:09;93481.56;;;30.89;28.61
49393;BME280;35268;42.642;23.308;2023-07-20T12:33:38;93473.69;;;31.09;29.33
49393;BME280;35268;42.642;23.308;2023-07-20T12:36:04;93469.16;;;31.25;29.08
49393;BME280;35268;42.642;23.308;2023-07-20T12:38:30;93483.09;;;31.39;29.25
49393;BME280;35268;42.642;23.308;2023-07-20T12:41:00;93477.56;;;31.39;27.60
49393;BME280;35268;42.642;23.308;2023-07-20T12:43:26;93475.28;;;31.29;27.37
49393;BME280;35268;42.642;23.308;2023-07-20T12:45:51;93465.19;;;31.35;28.39
49393;BME280;35268;42.642;23.308;2023-07-20T12:48:17;93475.78;;;31.46;28.23
49393;BME280;35268;42.642;23.308;2023-07-20T12:50:42;93473.66;;;31.77;28.15
49393;BME280;35268;42.642;23.308;2023-07-20T12:53:08;93483.78;;;32.08;27.72
49393;BME280;35268;42.642;23.308;2023-07-20T12:55:33;93469.66;;;32.25;25.62
49393;BME280;35268;42.642;23.308;2023-07-20T12:57:59;93463.50;;;32.30;25.45
49393;BME280;35268;42.642;23.308;2023-07-20T13:00:24;93463.19;;;32.37;26.22
49393;BME280;35268;42.642;23.308;2023-07-20T13:02:50;93457.38;;;32.35;26.57
49393;BME280;35268;42.642;23.308;2023-07-20T13:05:16;93474.84;;;32.41;25.87